Ottertail, Minnesota
Current Conditions -  °F | °C
As of 1:14 AM on Sunday 23 Nov 2014 (Local Time) from KADC Reporting Station
Moderate Fog Moderate Fog  
Wind Chill:   Ceiling: 200
Heat Index:   Visibility: 0.25mi
Dew Point:   Wind: 0mph
Humidity: 100%   Direction: NA
Pressure: 29.38"   Gusts: NA
Location:  46.43°N, 95.56°W
Report Text: KADC 230714Z AUTO 00000KT 1/4SM FG OVC002 00/00 A2938 RMK AO2
Loading
Personal Weather Stations






























Interactive Weather Map New forecast layout! Learn more

10-Day Weather Forecast

Advertisements
Track Severe Weather on mobile